Time,TemperatureF,DewpointF,PressureIn,WindDirection,WindDirectionDegrees,WindSpeedMPH,WindSpeedGustMPH,Humidity,HourlyPrecipIn,Conditions,Clouds,dailyrainin,SoftwareType,DateUTC
2013-05-07 00:04:00,31.5,29.1,30.02,NW,315,0.0,0.0,91,0.00,,,0.05,meteohub,2013-05-07 06:04:00,
2013-05-07 00:09:00,31.6,29.3,30.02,NW,315,0.0,0.0,91,0.00,,,0.00,meteohub,2013-05-07 06:09:00,
2013-05-07 00:14:00,31.5,29.1,30.02,NW,315,0.0,0.0,91,0.00,,,0.00,meteohub,2013-05-07 06:14:00,
2013-05-07 00:19:00,31.5,29.1,30.03,NW,315,0.0,0.0,91,0.00,,,0.00,meteohub,2013-05-07 06:19:00,
2013-05-07 00:24:00,31.3,28.9,30.03,NW,315,0.0,0.0,91,0.00,,,0.00,meteohub,2013-05-07 06:24:00,
2013-05-07 00:29:00,31.3,28.9,30.02,NW,315,0.0,0.0,91,0.00,,,0.00,meteohub,2013-05-07 06:29:00,
2013-05-07 00:34:00,31.1,28.8,30.02,NW,315,0.0,0.0,91,0.00,,,0.00,meteohub,2013-05-07 06:34:00,
2013-05-07 00:39:00,30.9,28.6,30.02,NW,315,0.0,0.0,91,0.00,,,0.00,meteohub,2013-05-07 06:39:00,
2013-05-07 00:44:00,30.7,28.4,30.02,NW,315,0.0,0.0,91,0.00,,,0.00,meteohub,2013-05-07 06:44:00,
2013-05-07 00:49:00,30.7,28.4,30.02,NW,315,0.0,0.0,91,0.00,,,0.00,meteohub,2013-05-07 06:49:00,
2013-05-07 00:55:00,30.7,28.2,30.02,NW,315,0.0,0.0,90,0.00,,,0.00,meteohub,2013-05-07 06:55:00,
2013-05-07 01:00:00,30.7,28.2,30.02,NW,315,0.0,0.0,90,0.00,,,0.00,meteohub,2013-05-07 07:00:00,
2013-05-07 01:05:00,30.6,28.0,30.02,NW,315,0.0,0.0,90,0.00,,,0.00,meteohub,2013-05-07 07:05:00,
2013-05-07 01:10:00,30.6,28.0,30.02,NW,315,0.0,0.0,90,0.00,,,0.00,meteohub,2013-05-07 07:10:00,
2013-05-07 01:15:00,30.6,28.0,30.02,NW,315,0.0,0.0,90,0.00,,,0.00,meteohub,2013-05-07 07:15:00,
2013-05-07 01:20:00,30.6,28.0,30.01,NW,315,0.0,0.0,90,0.00,,,0.00,meteohub,2013-05-07 07:20:00,
2013-05-07 01:25:00,30.6,28.0,30.01,NW,315,0.0,0.0,90,0.00,,,0.00,meteohub,2013-05-07 07:25:00,
2013-05-07 01:30:00,30.4,27.9,30.01,NW,315,0.0,0.0,90,0.00,,,0.00,meteohub,2013-05-07 07:30:00,
2013-05-07 01:35:00,30.4,27.9,30.01,NW,315,0.0,0.0,90,0.00,,,0.00,meteohub,2013-05-07 07:35:00,
2013-05-07 01:40:00,30.4,27.9,30.01,NW,315,0.0,0.0,90,0.00,,,0.00,meteohub,2013-05-07 07:40:00,
2013-05-07 01:45:00,30.4,27.9,30.01,NW,315,0.0,0.0,90,0.00,,,0.00,meteohub,2013-05-07 07:45:00,
2013-05-07 01:50:00,30.4,27.9,30.01,NW,315,0.0,0.0,90,0.00,,,0.00,meteohub,2013-05-07 07:50:00,
2013-05-07 01:55:00,30.4,27.9,30.01,NW,315,0.0,0.0,90,0.00,,,0.00,meteohub,2013-05-07 07:55:00,
2013-05-07 02:00:00,30.2,27.7,30.01,NW,315,0.0,0.0,90,0.00,,,0.00,meteohub,2013-05-07 08:00:00,
2013-05-07 02:05:00,30.2,27.7,30.01,NW,315,0.0,0.0,90,0.00,,,0.00,meteohub,2013-05-07 08:05:00,
2013-05-07 02:10:00,30.2,27.7,30.01,NW,315,0.0,0.0,90,0.00,,,0.00,meteohub,2013-05-07 08:10:00,
2013-05-07 02:15:00,30.2,27.7,30.01,NW,315,0.0,0.0,90,0.00,,,0.00,meteohub,2013-05-07 08:15:00,
2013-05-07 02:20:00,30.0,27.7,30.01,NW,315,0.0,0.0,91,0.00,,,0.00,meteohub,2013-05-07 08:20:00,
2013-05-07 02:25:00,30.0,27.7,30.01,NW,315,0.0,0.0,91,0.00,,,0.00,meteohub,2013-05-07 08:25:00,
2013-05-07 02:30:00,30.0,27.7,30.01,NW,315,0.0,0.0,91,0.00,,,0.00,meteohub,2013-05-07 08:30:00,
2013-05-07 02:36:00,30.0,27.5,30.01,NW,315,0.0,0.0,90,0.00,,,0.00,meteohub,2013-05-07 08:36:00,
2013-05-07 02:41:00,29.8,27.3,30.01,NW,315,0.0,0.0,90,0.00,,,0.00,meteohub,2013-05-07 08:41:00,
2013-05-07 02:46:00,29.8,27.3,30.01,NW,315,0.0,0.0,90,0.00,,,0.00,meteohub,2013-05-07 08:46:00,
2013-05-07 02:51:00,29.8,27.3,30.01,NW,315,0.0,0.0,90,0.00,,,0.00,meteohub,2013-05-07 08:51:00,
2013-05-07 02:56:00,29.8,27.3,30.01,NW,315,0.0,0.0,90,0.00,,,0.00,meteohub,2013-05-07 08:56:00,
2013-05-07 03:01:00,29.8,27.5,30.01,NW,315,0.0,0.0,91,0.00,,,0.00,meteohub,2013-05-07 09:01:00,
2013-05-07 03:06:00,29.8,27.5,30.01,NW,315,0.0,0.0,91,0.00,,,0.00,meteohub,2013-05-07 09:06:00,
2013-05-07 03:11:00,29.8,27.5,30.01,NW,315,0.0,0.0,91,0.00,,,0.00,meteohub,2013-05-07 09:11:00,
2013-05-07 03:16:00,29.8,27.5,30.01,NW,315,0.0,0.0,91,0.00,,,0.00,meteohub,2013-05-07 09:16:00,
2013-05-07 03:21:00,29.8,27.5,30.01,NW,315,0.0,0.0,91,0.00,,,0.00,meteohub,2013-05-07 09:21:00,
2013-05-07 03:26:00,29.8,27.5,30.01,NW,315,0.0,0.0,91,0.00,,,0.00,meteohub,2013-05-07 09:26:00,
2013-05-07 03:31:00,29.7,27.3,30.01,NW,315,0.0,0.0,91,0.00,,,0.00,meteohub,2013-05-07 09:31:00,
2013-05-07 03:36:00,29.7,27.3,30.01,NW,315,0.0,0.0,91,0.00,,,0.00,meteohub,2013-05-07 09:36:00,
2013-05-07 03:41:00,29.7,27.3,30.01,NW,315,0.0,0.0,91,0.00,,,0.00,meteohub,2013-05-07 09:41:00,
2013-05-07 03:46:00,29.7,27.3,30.01,NW,315,0.0,0.0,91,0.00,,,0.00,meteohub,2013-05-07 09:46:00,
2013-05-07 03:51:00,29.7,27.3,30.01,NW,315,0.0,0.0,91,0.00,,,0.00,meteohub,2013-05-07 09:51:00,
2013-05-07 03:56:00,29.7,27.3,30.01,NW,315,0.0,0.0,91,0.00,,,0.00,meteohub,2013-05-07 09:56:00,
2013-05-07 04:01:00,29.7,27.3,30.01,NW,315,0.0,0.0,91,0.00,,,0.00,meteohub,2013-05-07 10:01:00,
2013-05-07 04:06:00,29.7,27.3,30.01,NW,315,0.0,0.0,91,0.00,,,0.00,meteohub,2013-05-07 10:06:00,
2013-05-07 04:12:00,29.7,27.7,30.01,NW,315,0.0,0.0,92,0.00,,,0.00,meteohub,2013-05-07 10:12:00,
2013-05-07 04:17:00,29.7,27.7,30.01,NW,315,0.0,0.0,92,0.00,,,0.00,meteohub,2013-05-07 10:17:00,
2013-05-07 04:22:00,29.7,27.7,30.01,NW,315,0.0,0.0,92,0.00,,,0.00,meteohub,2013-05-07 10:22:00,
2013-05-07 04:27:00,29.7,27.7,30.01,NW,315,0.0,0.0,92,0.00,,,0.00,meteohub,2013-05-07 10:27:00,
2013-05-07 04:32:00,29.5,27.5,30.01,NW,315,0.0,0.0,92,0.00,,,0.00,meteohub,2013-05-07 10:32:00,
2013-05-07 04:37:00,29.5,27.5,30.01,NW,315,0.0,0.0,92,0.00,,,0.00,meteohub,2013-05-07 10:37:00,
2013-05-07 04:42:00,29.5,27.5,30.01,NW,315,0.0,0.0,92,0.00,,,0.00,meteohub,2013-05-07 10:42:00,
2013-05-07 04:47:00,29.7,27.7,30.01,NW,315,0.0,0.0,92,0.00,,,0.00,meteohub,2013-05-07 10:47:00,
2013-05-07 04:52:00,29.7,27.7,30.00,NW,315,0.0,0.0,92,0.00,,,0.00,meteohub,2013-05-07 10:52:00,
2013-05-07 04:57:00,29.7,27.7,30.00,NW,315,0.0,0.0,92,0.00,,,0.00,meteohub,2013-05-07 10:57:00,
2013-05-07 05:02:00,29.5,27.5,30.01,NW,315,0.0,0.0,92,0.00,,,0.00,meteohub,2013-05-07 11:02:00,
2013-05-07 05:07:00,29.5,27.5,30.01,NW,315,0.0,0.0,92,0.00,,,0.00,meteohub,2013-05-07 11:07:00,
2013-05-07 05:12:00,29.5,27.5,30.01,NW,315,0.0,0.0,92,0.00,,,0.00,meteohub,2013-05-07 11:12:00,
2013-05-07 05:17:00,29.5,27.5,30.01,NW,315,0.0,0.0,92,0.00,,,0.00,meteohub,2013-05-07 11:17:00,
2013-05-07 05:22:00,29.5,27.5,30.01,NW,315,0.0,0.0,92,0.00,,,0.00,meteohub,2013-05-07 11:22:00,
2013-05-07 05:27:00,29.5,27.5,30.01,NW,315,0.0,0.0,92,0.00,,,0.00,meteohub,2013-05-07 11:27:00,
2013-05-07 05:32:00,29.5,27.5,30.01,NW,315,0.0,0.0,92,0.00,,,0.00,meteohub,2013-05-07 11:32:00,
2013-05-07 05:37:00,29.7,27.7,30.01,NW,315,0.0,0.0,92,0.00,,,0.00,meteohub,2013-05-07 11:37:00,
2013-05-07 05:42:00,29.7,27.7,30.01,NW,315,0.0,0.0,92,0.00,,,0.00,meteohub,2013-05-07 11:42:00,
2013-05-07 05:47:00,29.7,27.7,30.01,NW,315,0.0,0.0,92,0.00,,,0.00,meteohub,2013-05-07 11:47:00,
2013-05-07 05:52:00,29.7,27.7,30.01,NW,315,0.0,0.0,92,0.00,,,0.00,meteohub,2013-05-07 11:52:00,
2013-05-07 05:57:00,29.7,27.7,30.01,NW,315,0.0,0.0,92,0.00,,,0.00,meteohub,2013-05-07 11:57:00,
2013-05-07 06:02:00,29.5,27.5,30.01,NW,315,0.0,0.0,92,0.00,,,0.00,meteohub,2013-05-07 12:02:00,
2013-05-07 06:07:00,29.5,27.5,30.01,NW,315,0.0,0.0,92,0.00,,,0.00,meteohub,2013-05-07 12:07:00,
2013-05-07 06:12:00,29.5,27.5,30.01,NW,315,0.0,0.0,92,0.00,,,0.00,meteohub,2013-05-07 12:12:00,
2013-05-07 06:17:00,29.7,27.7,30.01,NW,315,0.0,0.0,92,0.00,,,0.00,meteohub,2013-05-07 12:17:00,
2013-05-07 06:22:00,29.7,27.7,30.01,NW,315,0.0,0.0,92,0.00,,,0.00,meteohub,2013-05-07 12:22:00,
2013-05-07 06:27:00,29.7,27.7,30.01,NW,315,0.0,0.0,92,0.00,,,0.00,meteohub,2013-05-07 12:27:00,
2013-05-07 06:32:00,29.7,27.7,30.01,NW,315,0.0,0.0,92,0.00,,,0.00,meteohub,2013-05-07 12:32:00,
2013-05-07 06:37:00,29.8,27.9,30.02,NW,315,0.0,0.0,92,0.00,,,0.00,meteohub,2013-05-07 12:37:00,
2013-05-07 06:42:00,29.8,27.9,30.02,NW,315,0.0,0.0,92,0.00,,,0.00,meteohub,2013-05-07 12:42:00,
2013-05-07 06:47:00,30.0,28.0,30.02,NW,315,0.0,0.0,92,0.00,,,0.00,meteohub,2013-05-07 12:47:00,
2013-05-07 06:52:00,30.0,28.0,30.02,NW,315,0.0,0.0,92,0.00,,,0.00,meteohub,2013-05-07 12:52:00,
2013-05-07 06:57:00,30.2,27.9,30.02,NW,315,0.0,0.0,91,0.00,,,0.00,meteohub,2013-05-07 12:57:00,
2013-05-07 07:02:00,30.2,27.9,30.03,NW,315,0.0,0.0,91,0.00,,,0.00,meteohub,2013-05-07 13:02:00,
2013-05-07 07:07:00,30.4,28.0,30.02,NW,315,0.0,0.0,91,0.00,,,0.00,meteohub,2013-05-07 13:07:00,
2013-05-07 07:12:00,30.6,28.2,30.02,NW,315,0.0,0.0,91,0.00,,,0.00,meteohub,2013-05-07 13:12:00,
2013-05-07 07:17:00,30.9,28.6,30.03,NW,315,0.0,0.0,91,0.00,,,0.00,meteohub,2013-05-07 13:17:00,
2013-05-07 07:22:00,31.1,28.8,30.02,NW,315,0.0,0.0,91,0.00,,,0.00,meteohub,2013-05-07 13:22:00,
2013-05-07 07:27:00,31.5,29.1,30.02,NW,315,0.0,0.0,91,0.00,,,0.00,meteohub,2013-05-07 13:27:00,
2013-05-07 07:32:00,32.0,29.5,30.03,NW,315,0.0,0.0,90,0.00,,,0.00,meteohub,2013-05-07 13:32:00,
2013-05-07 07:37:00,32.4,29.5,30.02,NW,315,0.0,0.0,89,0.00,,,0.00,meteohub,2013-05-07 13:37:00,
2013-05-07 07:42:00,33.1,30.2,30.03,NW,315,0.0,0.0,89,0.00,,,0.00,meteohub,2013-05-07 13:42:00,
2013-05-07 07:47:00,33.4,30.2,30.03,NW,315,0.0,0.0,88,0.00,,,0.00,meteohub,2013-05-07 13:47:00,
2013-05-07 07:52:00,33.6,30.2,30.03,NW,315,0.0,0.0,87,0.00,,,0.00,meteohub,2013-05-07 13:52:00,
2013-05-07 07:57:00,34.2,30.2,30.03,NW,315,0.0,0.0,85,0.00,,,0.00,meteohub,2013-05-07 13:57:00,
2013-05-07 08:02:00,34.5,30.6,30.02,NW,315,0.0,0.0,85,0.00,,,0.00,meteohub,2013-05-07 14:02:00,
2013-05-07 08:07:00,34.5,30.6,30.03,NW,315,0.0,0.0,85,0.00,,,0.00,meteohub,2013-05-07 14:07:00,
2013-05-07 08:12:00,35.8,30.7,30.03,West,270,0.0,0.0,82,0.00,,,0.00,meteohub,2013-05-07 14:12:00,
2013-05-07 08:17:00,35.8,30.6,30.03,West,270,0.0,0.0,81,0.00,,,0.00,meteohub,2013-05-07 14:17:00,
2013-05-07 08:22:00,36.1,30.9,30.03,West,270,0.0,0.0,81,0.00,,,0.00,meteohub,2013-05-07 14:22:00,
2013-05-07 08:27:00,37.0,31.5,30.03,SW,225,0.0,0.0,80,0.00,,,0.00,meteohub,2013-05-07 14:27:00,
2013-05-07 08:32:00,37.9,33.3,30.03,South,180,0.0,0.0,83,0.00,,,0.00,meteohub,2013-05-07 14:32:00,
2013-05-07 08:37:00,38.1,33.1,30.03,SW,225,2.0,2.0,82,0.00,,,0.00,meteohub,2013-05-07 14:37:00,
2013-05-07 08:42:00,38.7,33.3,30.03,West,270,4.0,4.0,81,0.00,,,0.00,meteohub,2013-05-07 14:42:00,
2013-05-07 08:47:00,39.6,33.3,30.03,SW,225,0.0,4.0,78,0.00,,,0.00,meteohub,2013-05-07 14:47:00,
2013-05-07 08:52:00,39.7,32.7,30.03,West,270,4.0,4.0,76,0.00,,,0.00,meteohub,2013-05-07 14:52:00,
2013-05-07 08:57:00,39.7,32.5,30.03,West,270,0.0,6.0,75,0.00,,,0.00,meteohub,2013-05-07 14:57:00,
2013-05-07 09:02:00,39.9,32.4,30.03,WSW,248,1.0,6.0,74,0.00,,,0.00,meteohub,2013-05-07 15:02:00,
2013-05-07 09:07:00,39.7,32.2,30.03,SSW,203,6.0,6.0,74,0.00,,,0.00,meteohub,2013-05-07 15:07:00,
2013-05-07 09:12:00,39.9,32.4,30.03,SW,225,2.0,6.0,74,0.00,,,0.00,meteohub,2013-05-07 15:12:00,
2013-05-07 09:17:00,39.9,32.4,30.03,West,270,6.0,6.0,74,0.00,,,0.00,meteohub,2013-05-07 15:17:00,
2013-05-07 09:22:00,39.7,31.8,30.03,SW,225,0.0,9.0,73,0.00,,,0.00,meteohub,2013-05-07 15:22:00,
2013-05-07 09:27:00,40.1,32.2,30.03,North,0,5.0,9.0,73,0.00,,,0.00,meteohub,2013-05-07 15:27:00,
2013-05-07 09:32:00,40.5,32.5,30.03,SW,225,6.0,9.0,73,0.00,,,0.00,meteohub,2013-05-07 15:32:00,
2013-05-07 09:37:00,39.7,31.5,30.03,SE,135,2.0,7.0,72,0.00,,,0.00,meteohub,2013-05-07 15:37:00,
2013-05-07 09:42:00,39.4,31.1,30.03,WNW,293,8.0,8.0,72,0.00,,,0.00,meteohub,2013-05-07 15:42:00,
2013-05-07 09:47:00,39.4,31.1,30.03,SW,225,1.0,8.0,72,0.00,,,0.00,meteohub,2013-05-07 15:47:00,
2013-05-07 09:52:00,40.1,31.8,30.03,NW,315,3.0,8.0,72,0.00,,,0.00,meteohub,2013-05-07 15:52:00,
2013-05-07 09:57:00,40.1,31.5,30.03,West,270,4.0,8.0,71,0.00,,,0.00,meteohub,2013-05-07 15:57:00,
2013-05-07 10:02:00,40.1,31.5,30.03,North,0,7.0,7.0,71,0.00,,,0.00,meteohub,2013-05-07 16:02:00,
2013-05-07 10:07:00,40.1,31.5,30.03,North,0,7.0,7.0,71,0.00,,,0.00,meteohub,2013-05-07 16:07:00,
2013-05-07 10:12:00,41.5,32.2,30.04,East,90,2.0,7.0,69,0.00,,,0.00,meteohub,2013-05-07 16:12:00,
2013-05-07 10:17:00,43.2,32.2,30.03,NW,315,4.0,7.0,65,0.00,,,0.00,meteohub,2013-05-07 16:17:00,
2013-05-07 10:22:00,43.2,30.6,30.03,SE,135,1.0,7.0,61,0.00,,,0.00,meteohub,2013-05-07 16:22:00,
2013-05-07 10:27:00,43.2,30.2,30.04,West,270,4.0,7.0,60,0.00,,,0.00,meteohub,2013-05-07 16:27:00,
2013-05-07 10:32:00,43.3,30.4,30.04,NW,315,4.0,7.0,60,0.00,,,0.00,meteohub,2013-05-07 16:32:00,
2013-05-07 10:37:00,42.1,27.9,30.04,NE,45,2.0,8.0,57,0.00,,,0.00,meteohub,2013-05-07 16:37:00,
2013-05-07 10:42:00,43.3,29.5,30.04,NW,315,1.0,8.0,58,0.00,,,0.00,meteohub,2013-05-07 16:42:00,
2013-05-07 10:47:00,46.0,30.7,30.03,SE,135,0.0,8.0,55,0.00,,,0.00,meteohub,2013-05-07 16:47:00,
2013-05-07 10:52:00,48.4,31.1,30.03,South,180,0.0,6.0,51,0.00,,,0.00,meteohub,2013-05-07 16:52:00,
2013-05-07 10:57:00,50.4,32.4,30.04,West,270,5.0,6.0,50,0.01,,,0.01,meteohub,2013-05-07 16:57:00,
2013-05-07 11:02:00,51.4,30.7,30.03,SE,135,4.0,5.0,45,0.07,,,0.07,meteohub,2013-05-07 17:02:00,
2013-05-07 11:07:00,51.4,29.1,30.03,SE,135,2.0,5.0,42,0.11,,,0.11,meteohub,2013-05-07 17:07:00,
2013-05-07 11:12:00,51.3,28.9,30.04,North,0,2.0,6.0,42,0.15,,,0.15,meteohub,2013-05-07 17:12:00,
2013-05-07 11:17:00,51.6,29.8,30.03,SW,225,2.0,7.0,43,0.19,,,0.19,meteohub,2013-05-07 17:17:00,
2013-05-07 11:22:00,52.7,28.4,30.03,West,270,1.0,7.0,39,0.20,,,0.20,meteohub,2013-05-07 17:22:00,
2013-05-07 11:27:00,52.7,27.1,30.03,NW,315,3.0,7.0,37,0.21,,,0.21,meteohub,2013-05-07 17:27:00,
2013-05-07 11:32:00,51.1,25.7,30.03,SW,225,5.0,8.0,37,0.22,,,0.22,meteohub,2013-05-07 17:32:00,
2013-05-07 11:37:00,51.6,28.0,30.03,NW,315,4.0,9.0,40,0.22,,,0.22,meteohub,2013-05-07 17:37:00,
2013-05-07 11:42:00,52.9,28.6,30.03,SW,225,6.0,9.0,39,0.22,,,0.22,meteohub,2013-05-07 17:42:00,
2013-05-07 11:47:00,53.4,29.1,30.03,NW,315,9.0,9.0,39,0.22,,,0.22,meteohub,2013-05-07 17:47:00,
2013-05-07 11:52:00,53.1,30.0,30.03,WNW,293,4.0,9.0,41,0.22,,,0.22,meteohub,2013-05-07 17:52:00,
2013-05-07 11:57:00,53.6,29.3,30.03,NW,315,7.0,9.0,39,0.19,,,0.22,meteohub,2013-05-07 17:57:00,
2013-05-07 12:02:00,53.1,28.0,30.03,North,0,5.0,9.0,38,0.14,,,0.22,meteohub,2013-05-07 18:02:00,
2013-05-07 12:07:00,53.1,28.0,30.03,North,0,5.0,8.0,38,0.09,,,0.22,meteohub,2013-05-07 18:07:00,
2013-05-07 12:12:00,50.2,25.0,30.03,SW,225,1.0,8.0,37,0.05,,,0.22,meteohub,2013-05-07 18:12:00,
2013-05-07 12:17:00,51.3,26.6,30.03,NW,315,4.0,8.0,38,0.02,,,0.22,meteohub,2013-05-07 18:17:00,
2013-05-07 12:22:00,51.1,25.0,30.03,NW,315,7.0,8.0,36,0.01,,,0.22,meteohub,2013-05-07 18:22:00,
2013-05-07 12:27:00,50.2,25.0,30.02,North,0,2.0,7.0,37,0.01,,,0.22,meteohub,2013-05-07 18:27:00,
2013-05-07 12:32:00,52.2,26.6,30.03,North,0,5.0,7.0,37,0.00,,,0.22,meteohub,2013-05-07 18:32:00,
2013-05-07 12:37:00,52.3,22.6,30.03,East,90,3.0,8.0,31,0.00,,,0.22,meteohub,2013-05-07 18:37:00,
2013-05-07 12:42:00,51.1,21.6,30.03,SW,225,2.0,8.0,31,0.00,,,0.22,meteohub,2013-05-07 18:42:00,
2013-05-07 12:47:00,49.3,21.4,30.02,West,270,6.0,9.0,33,0.00,,,0.22,meteohub,2013-05-07 18:47:00,
2013-05-07 12:52:00,47.3,21.0,30.02,WNW,293,7.0,9.0,35,0.00,,,0.22,meteohub,2013-05-07 18:52:00,
2013-05-07 12:57:00,46.0,21.9,30.03,SE,135,2.0,9.0,38,0.00,,,0.22,meteohub,2013-05-07 18:57:00,
2013-05-07 13:02:00,46.0,22.5,30.03,NE,45,2.0,7.0,39,0.00,,,0.22,meteohub,2013-05-07 19:02:00,
2013-05-07 13:07:00,47.1,25.2,30.02,NW,315,2.0,7.0,42,0.00,,,0.22,meteohub,2013-05-07 19:07:00,
2013-05-07 13:12:00,50.0,26.6,30.02,SW,225,1.0,7.0,40,0.00,,,0.22,meteohub,2013-05-07 19:12:00,
2013-05-07 13:17:00,51.1,24.4,30.02,East,90,4.0,5.0,35,0.00,,,0.22,meteohub,2013-05-07 19:17:00,
2013-05-07 13:22:00,50.2,23.5,30.03,West,270,5.0,7.0,35,0.00,,,0.22,meteohub,2013-05-07 19:22:00,
2013-05-07 13:27:00,50.2,23.5,30.02,SE,135,4.0,8.0,35,0.00,,,0.22,meteohub,2013-05-07 19:27:00,
2013-05-07 13:32:00,51.1,23.7,30.02,North,0,5.0,8.0,34,0.00,,,0.22,meteohub,2013-05-07 19:32:00,
2013-05-07 13:37:00,50.9,22.1,30.03,NW,315,4.0,9.0,32,0.00,,,0.22,meteohub,2013-05-07 19:37:00,
2013-05-07 13:42:00,50.9,21.4,30.02,NE,45,2.0,10.0,31,0.00,,,0.22,meteohub,2013-05-07 19:42:00,
2013-05-07 13:47:00,51.4,21.0,30.03,West,270,5.0,10.0,30,0.00,,,0.22,meteohub,2013-05-07 19:47:00,
2013-05-07 13:52:00,50.9,19.8,30.02,SE,135,4.0,10.0,29,0.00,,,0.22,meteohub,2013-05-07 19:52:00,
2013-05-07 13:57:00,50.5,19.4,30.02,NW,315,8.0,8.0,29,0.00,,,0.22,meteohub,2013-05-07 19:57:00,
2013-05-07 14:02:00,51.3,20.8,30.02,SW,225,4.0,8.0,30,0.00,,,0.22,meteohub,2013-05-07 20:02:00,
2013-05-07 14:07:00,51.3,20.8,30.02,SW,225,4.0,8.0,30,0.00,,,0.22,meteohub,2013-05-07 20:07:00,
2013-05-07 14:12:00,52.3,21.0,30.02,SE,135,3.0,8.0,29,0.00,,,0.22,meteohub,2013-05-07 20:12:00,
2013-05-07 14:17:00,52.5,21.2,30.01,SW,225,0.0,6.0,29,0.00,,,0.22,meteohub,2013-05-07 20:17:00,
2013-05-07 14:22:00,53.4,21.2,30.02,North,0,4.0,6.0,28,0.00,,,0.22,meteohub,2013-05-07 20:22:00,
2013-05-07 14:27:00,52.9,19.8,30.02,SW,225,7.0,8.0,27,0.00,,,0.22,meteohub,2013-05-07 20:27:00,
2013-05-07 14:32:00,51.8,18.9,30.02,SE,135,2.0,11.0,27,0.00,,,0.22,meteohub,2013-05-07 20:32:00,
2013-05-07 14:37:00,51.3,19.2,30.01,North,0,5.0,11.0,28,0.00,,,0.22,meteohub,2013-05-07 20:37:00,
2013-05-07 14:42:00,50.9,20.5,30.01,South,180,4.0,11.0,30,0.00,,,0.22,meteohub,2013-05-07 20:42:00,
2013-05-07 14:47:00,50.0,20.5,30.01,NE,45,2.0,7.0,31,0.00,,,0.22,meteohub,2013-05-07 20:47:00,
2013-05-07 14:52:00,48.9,20.3,30.01,SW,225,4.0,7.0,32,0.00,,,0.22,meteohub,2013-05-07 20:52:00,
2013-05-07 14:57:00,48.7,20.1,30.01,South,180,3.0,8.0,32,0.00,,,0.22,meteohub,2013-05-07 20:57:00,
2013-05-07 15:02:00,48.7,20.1,30.01,NW,315,4.0,8.0,32,0.00,,,0.22,meteohub,2013-05-07 21:02:00,
2013-05-07 15:07:00,48.7,17.1,30.01,WSW,248,4.0,5.0,28,0.00,,,0.22,meteohub,2013-05-07 21:07:00,
2013-05-07 15:12:00,48.4,19.0,30.01,SE,135,4.0,10.0,31,0.00,,,0.22,meteohub,2013-05-07 21:12:00,
2013-05-07 15:17:00,48.6,19.2,30.01,ESE,113,5.0,10.0,31,0.00,,,0.22,meteohub,2013-05-07 21:17:00,
2013-05-07 15:22:00,49.3,20.7,30.01,NW,315,3.0,10.0,32,0.00,,,0.22,meteohub,2013-05-07 21:22:00,
2013-05-07 15:27:00,50.0,20.5,30.01,West,270,4.0,8.0,31,0.00,,,0.22,meteohub,2013-05-07 21:27:00,
2013-05-07 15:32:00,49.8,20.3,30.01,SE,135,4.0,8.0,31,0.00,,,0.22,meteohub,2013-05-07 21:32:00,
2013-05-07 15:37:00,49.6,20.3,30.01,SW,225,1.0,8.0,31,0.00,,,0.22,meteohub,2013-05-07 21:37:00,
2013-05-07 15:42:00,49.1,19.8,30.01,West,270,2.0,6.0,31,0.00,,,0.22,meteohub,2013-05-07 21:42:00,
2013-05-07 15:47:00,47.5,19.0,30.01,NW,315,4.0,6.0,32,0.00,,,0.22,meteohub,2013-05-07 21:47:00,
2013-05-07 15:52:00,46.8,19.9,30.01,SSE,158,2.0,6.0,34,0.00,,,0.22,meteohub,2013-05-07 21:52:00,
2013-05-07 15:57:00,46.6,19.8,30.01,North,0,2.0,4.0,34,0.00,,,0.22,meteohub,2013-05-07 21:57:00,
2013-05-07 16:02:00,46.0,19.2,30.01,NW,315,2.0,4.0,34,0.00,,,0.22,meteohub,2013-05-07 22:02:00,
2013-05-07 16:07:00,46.0,19.2,30.01,NW,315,2.0,4.0,34,0.00,,,0.22,meteohub,2013-05-07 22:07:00,
2013-05-07 16:12:00,46.0,21.9,30.01,NW,315,6.0,6.0,38,0.00,,,0.22,meteohub,2013-05-07 22:12:00,
2013-05-07 16:17:00,45.9,21.7,30.01,South,180,3.0,7.0,38,0.00,,,0.22,meteohub,2013-05-07 22:17:00,
2013-05-07 16:22:00,45.7,21.6,30.01,West,270,2.0,7.0,38,0.00,,,0.22,meteohub,2013-05-07 22:22:00,
2013-05-07 16:27:00,45.7,21.6,30.01,NE,45,2.0,7.0,38,0.00,,,0.22,meteohub,2013-05-07 22:27:00,
2013-05-07 16:32:00,45.7,21.6,30.01,NW,315,1.0,6.0,38,0.00,,,0.22,meteohub,2013-05-07 22:32:00,
2013-05-07 16:37:00,45.5,21.4,30.01,NW,315,2.0,6.0,38,0.00,,,0.22,meteohub,2013-05-07 22:37:00,
2013-05-07 16:42:00,45.5,21.4,30.01,West,270,4.0,6.0,38,0.00,,,0.22,meteohub,2013-05-07 22:42:00,
2013-05-07 16:47:00,45.3,21.7,30.01,West,270,4.0,5.0,39,0.00,,,0.22,meteohub,2013-05-07 22:47:00,
2013-05-07 16:52:00,44.8,21.9,30.01,West,270,4.0,5.0,40,0.00,,,0.22,meteohub,2013-05-07 22:52:00,
2013-05-07 16:57:00,44.2,23.7,30.01,North,0,4.0,5.0,44,0.00,,,0.22,meteohub,2013-05-07 22:57:00,
2013-05-07 17:02:00,44.1,23.5,30.01,NW,315,2.0,6.0,44,0.00,,,0.22,meteohub,2013-05-07 23:02:00,
2013-05-07 17:07:00,44.4,23.9,30.01,NW,315,3.0,6.0,44,0.00,,,0.22,meteohub,2013-05-07 23:07:00,
2013-05-07 17:12:00,44.8,23.7,30.01,NW,315,2.0,8.0,43,0.00,,,0.22,meteohub,2013-05-07 23:12:00,
2013-05-07 17:17:00,44.4,23.4,30.01,SE,135,2.0,8.0,43,0.00,,,0.22,meteohub,2013-05-07 23:17:00,
2013-05-07 17:22:00,43.9,23.9,30.01,SE,135,2.0,5.0,45,0.00,,,0.22,meteohub,2013-05-07 23:22:00,
2013-05-07 17:27:00,43.5,25.7,30.02,NE,45,2.0,4.0,49,0.00,,,0.22,meteohub,2013-05-07 23:27:00,
2013-05-07 17:32:00,43.0,25.7,30.02,South,180,0.0,4.0,50,0.00,,,0.22,meteohub,2013-05-07 23:32:00,
2013-05-07 17:37:00,42.6,26.2,30.02,North,0,1.0,2.0,52,0.00,,,0.22,meteohub,2013-05-07 23:37:00,
2013-05-07 17:42:00,41.9,25.5,30.02,West,270,2.0,5.0,52,0.00,,,0.22,meteohub,2013-05-07 23:42:00,
2013-05-07 17:47:00,41.4,25.0,30.02,South,180,1.0,5.0,52,0.00,,,0.22,meteohub,2013-05-07 23:47:00,
2013-05-07 17:52:00,40.8,26.4,30.03,SE,135,1.0,5.0,56,0.00,,,0.22,meteohub,2013-05-07 23:52:00,
2013-05-07 17:57:00,40.1,26.6,30.03,East,90,3.0,4.0,58,0.00,,,0.22,meteohub,2013-05-07 23:57:00,
2013-05-07 18:02:00,39.7,26.6,30.03,West,270,4.0,4.0,59,0.00,,,0.22,meteohub,2013-05-08 00:02:00,
2013-05-07 18:07:00,39.7,26.6,30.04,West,270,4.0,4.0,59,0.00,,,0.22,meteohub,2013-05-08 00:07:00,
2013-05-07 18:12:00,37.0,25.7,30.04,SW,225,2.0,4.0,63,0.00,,,0.22,meteohub,2013-05-08 00:12:00,
2013-05-07 18:17:00,36.3,25.7,30.04,South,180,2.0,4.0,65,0.00,,,0.22,meteohub,2013-05-08 00:17:00,
2013-05-07 18:22:00,36.0,26.4,30.03,SE,135,3.0,4.0,68,0.00,,,0.22,meteohub,2013-05-08 00:22:00,
2013-05-07 18:27:00,35.6,26.4,30.03,NW,315,0.0,4.0,69,0.00,,,0.22,meteohub,2013-05-08 00:27:00,
2013-05-07 18:32:00,35.4,27.0,30.03,NW,315,2.0,3.0,71,0.00,,,0.22,meteohub,2013-05-08 00:32:00,
2013-05-07 18:37:00,35.6,27.1,30.03,South,180,1.0,3.0,71,0.00,,,0.22,meteohub,2013-05-08 00:37:00,
2013-05-07 18:42:00,35.6,27.1,30.03,SW,225,1.0,2.0,71,0.00,,,0.22,meteohub,2013-05-08 00:42:00,
2013-05-07 18:47:00,35.6,27.5,30.03,NNW,338,0.0,2.0,72,0.00,,,0.22,meteohub,2013-05-08 00:47:00,
2013-05-07 18:52:00,35.8,27.7,30.03,NW,315,0.0,2.0,72,0.00,,,0.22,meteohub,2013-05-08 00:52:00,
2013-05-07 18:57:00,36.0,28.2,30.03,NW,315,0.0,2.0,73,0.00,,,0.22,meteohub,2013-05-08 00:57:00,
2013-05-07 19:02:00,36.0,28.2,30.03,SE,135,2.0,2.0,73,0.00,,,0.22,meteohub,2013-05-08 01:02:00,
2013-05-07 19:07:00,36.0,27.9,30.03,NW,315,1.0,3.0,72,0.00,,,0.22,meteohub,2013-05-08 01:07:00,
2013-05-07 19:12:00,36.1,28.0,30.03,NNW,338,2.0,3.0,72,0.00,,,0.22,meteohub,2013-05-08 01:12:00,
2013-05-07 19:17:00,36.0,27.9,30.04,West,270,3.0,3.0,72,0.00,,,0.22,meteohub,2013-05-08 01:17:00,
2013-05-07 19:22:00,36.0,27.9,30.04,West,270,2.0,4.0,72,0.00,,,0.22,meteohub,2013-05-08 01:22:00,
2013-05-07 19:27:00,35.8,27.7,30.04,West,270,0.0,4.0,72,0.00,,,0.22,meteohub,2013-05-08 01:27:00,
2013-05-07 19:32:00,35.8,27.7,30.04,West,270,0.0,3.0,72,0.00,,,0.22,meteohub,2013-05-08 01:32:00,
2013-05-07 19:37:00,35.6,27.9,30.04,South,180,0.0,3.0,73,0.00,,,0.22,meteohub,2013-05-08 01:37:00,
2013-05-07 19:42:00,35.2,27.9,30.04,SE,135,0.0,3.0,74,0.00,,,0.22,meteohub,2013-05-08 01:42:00,
2013-05-07 19:47:00,34.9,27.5,30.04,SE,135,0.0,2.0,74,0.00,,,0.22,meteohub,2013-05-08 01:47:00,
2013-05-07 19:52:00,34.7,27.3,30.04,SE,135,0.0,2.0,74,0.00,,,0.22,meteohub,2013-05-08 01:52:00,
2013-05-07 19:57:00,34.5,27.5,30.04,NW,315,0.0,2.0,75,0.00,,,0.22,meteohub,2013-05-08 01:57:00,
2013-05-07 20:02:00,34.3,27.3,30.04,NW,315,2.0,4.0,75,0.00,,,0.22,meteohub,2013-05-08 02:02:00,
2013-05-07 20:07:00,34.3,27.3,30.04,NW,315,2.0,4.0,75,0.00,,,0.22,meteohub,2013-05-08 02:07:00,
2013-05-07 20:12:00,33.6,26.8,30.04,SE,135,0.0,4.0,76,0.00,,,0.22,meteohub,2013-05-08 02:12:00,
2013-05-07 20:17:00,33.4,26.8,30.04,SE,135,0.0,2.0,76,0.00,,,0.22,meteohub,2013-05-08 02:17:00,
2013-05-07 20:22:00,33.3,26.8,30.04,SE,135,1.0,2.0,77,0.00,,,0.22,meteohub,2013-05-08 02:22:00,
2013-05-07 20:27:00,32.9,26.4,30.04,SE,135,0.0,1.0,77,0.00,,,0.22,meteohub,2013-05-08 02:27:00,
2013-05-07 20:32:00,32.7,26.2,30.04,SE,135,0.0,2.0,77,0.00,,,0.22,meteohub,2013-05-08 02:32:00,
2013-05-07 20:37:00,32.5,26.4,30.04,SE,135,0.0,2.0,78,0.00,,,0.22,meteohub,2013-05-08 02:37:00,
2013-05-07 20:42:00,32.4,26.2,30.04,SE,135,0.0,2.0,78,0.00,,,0.22,meteohub,2013-05-08 02:42:00,
2013-05-07 20:47:00,32.2,26.1,30.04,SE,135,0.0,1.0,78,0.00,,,0.22,meteohub,2013-05-08 02:47:00,
2013-05-07 20:52:00,32.0,25.9,30.04,SE,135,0.0,1.0,78,0.00,,,0.22,meteohub,2013-05-08 02:52:00,
2013-05-07 20:57:00,31.8,26.4,30.04,SE,135,0.0,0.0,80,0.00,,,0.22,meteohub,2013-05-08 02:57:00,
2013-05-07 21:02:00,31.6,26.2,30.04,SE,135,0.0,0.0,80,0.00,,,0.22,meteohub,2013-05-08 03:02:00,
2013-05-07 21:07:00,31.6,26.4,30.04,SE,135,0.0,0.0,81,0.00,,,0.22,meteohub,2013-05-08 03:07:00,
2013-05-07 21:12:00,31.3,26.1,30.05,SE,135,1.0,1.0,81,0.00,,,0.22,meteohub,2013-05-08 03:12:00,
2013-05-07 21:17:00,31.1,25.9,30.05,SE,135,0.0,1.0,81,0.00,,,0.22,meteohub,2013-05-08 03:17:00,
2013-05-07 21:22:00,30.9,25.7,30.05,SE,135,0.0,1.0,81,0.00,,,0.22,meteohub,2013-05-08 03:22:00,
2013-05-07 21:27:00,30.9,25.7,30.05,SE,135,0.0,1.0,81,0.00,,,0.22,meteohub,2013-05-08 03:27:00,
2013-05-07 21:32:00,30.9,25.7,30.05,SE,135,0.0,1.0,81,0.00,,,0.22,meteohub,2013-05-08 03:32:00,
2013-05-07 21:37:00,30.7,25.5,30.04,East,90,0.0,2.0,81,0.00,,,0.22,meteohub,2013-05-08 03:37:00,
2013-05-07 21:42:00,30.6,25.7,30.04,SE,135,1.0,2.0,82,0.00,,,0.22,meteohub,2013-05-08 03:42:00,
2013-05-07 21:47:00,30.6,25.7,30.05,SE,135,0.0,2.0,82,0.00,,,0.22,meteohub,2013-05-08 03:47:00,
2013-05-07 21:52:00,30.6,25.7,30.05,NW,315,2.0,2.0,82,0.00,,,0.22,meteohub,2013-05-08 03:52:00,
2013-05-07 21:57:00,30.7,25.9,30.05,South,180,1.0,2.0,82,0.00,,,0.22,meteohub,2013-05-08 03:57:00,
2013-05-07 22:01:00,30.7,25.9,30.05,SE,135,2.0,2.0,82,0.00,,,0.22,meteohub,2013-05-08 04:01:00,
2013-05-07 22:02:00,30.7,25.9,30.05,SE,135,2.0,2.0,82,0.00,,,0.22,meteohub,2013-05-08 04:02:00,
2013-05-07 22:03:00,30.7,25.9,30.05,SE,135,2.0,2.0,82,0.00,,,0.22,meteohub,2013-05-08 04:03:00,
2013-05-07 22:06:00,30.7,25.9,30.05,SE,135,2.0,2.0,82,0.00,,,0.22,meteohub,2013-05-08 04:06:00,
2013-05-07 22:12:00,30.6,26.1,30.06,SE,135,2.0,2.0,83,0.00,,,0.22,meteohub,2013-05-08 04:12:00,
2013-05-07 22:17:00,30.6,26.1,30.05,SE,135,0.0,2.0,83,0.00,,,0.22,meteohub,2013-05-08 04:17:00,
2013-05-07 22:22:00,30.6,26.1,30.06,SE,135,1.0,2.0,83,0.00,,,0.22,meteohub,2013-05-08 04:22:00,
2013-05-07 22:27:00,30.6,26.1,30.06,NW,315,2.0,2.0,83,0.00,,,0.22,meteohub,2013-05-08 04:27:00,
2013-05-07 22:32:00,30.6,26.1,30.06,NW,315,0.0,2.0,83,0.00,,,0.22,meteohub,2013-05-08 04:32:00,
2013-05-07 22:37:00,30.6,26.1,30.06,NW,315,0.0,2.0,83,0.00,,,0.22,meteohub,2013-05-08 04:37:00,
2013-05-07 22:42:00,30.6,26.2,30.06,SE,135,2.0,2.0,84,0.00,,,0.22,meteohub,2013-05-08 04:42:00,
2013-05-07 22:47:00,30.6,26.2,30.06,SE,135,0.0,2.0,84,0.00,,,0.22,meteohub,2013-05-08 04:47:00,
2013-05-07 22:52:00,30.6,26.2,30.06,SE,135,0.0,2.0,84,0.00,,,0.22,meteohub,2013-05-08 04:52:00,
2013-05-07 22:57:00,30.7,26.4,30.05,NW,315,2.0,2.0,84,0.00,,,0.22,meteohub,2013-05-08 04:57:00,
2013-05-07 23:02:00,30.7,26.4,30.05,West,270,0.0,3.0,84,0.00,,,0.22,meteohub,2013-05-08 05:02:00,
2013-05-07 23:07:00,30.7,26.4,30.06,SW,225,0.0,3.0,84,0.00,,,0.22,meteohub,2013-05-08 05:07:00,
2013-05-07 23:12:00,30.7,26.4,30.06,NW,315,2.0,3.0,84,0.00,,,0.22,meteohub,2013-05-08 05:12:00,
2013-05-07 23:17:00,30.7,26.4,30.05,NW,315,0.0,2.0,84,0.00,,,0.22,meteohub,2013-05-08 05:17:00,
2013-05-07 23:22:00,30.7,26.4,30.04,SE,135,0.0,2.0,84,0.00,,,0.22,meteohub,2013-05-08 05:22:00,
2013-05-07 23:27:00,30.7,26.4,30.04,North,0,0.0,2.0,84,0.00,,,0.22,meteohub,2013-05-08 05:27:00,
2013-05-07 23:32:00,30.7,26.4,30.05,South,180,1.0,0.0,84,0.00,,,0.22,meteohub,2013-05-08 05:32:00,
2013-05-07 23:37:00,30.7,26.4,30.04,SW,225,0.0,2.0,84,0.00,,,0.22,meteohub,2013-05-08 05:37:00,
2013-05-07 23:42:00,30.6,26.6,30.04,SW,225,1.0,2.0,85,0.00,,,0.22,meteohub,2013-05-08 05:42:00,
2013-05-07 23:47:00,30.6,26.2,30.04,South,180,0.0,2.0,84,0.00,,,0.22,meteohub,2013-05-08 05:47:00,
2013-05-07 23:52:00,30.6,26.2,30.04,South,180,0.0,2.0,84,0.00,,,0.22,meteohub,2013-05-08 05:52:00,
2013-05-07 23:57:00,30.2,25.9,30.04,SE,135,0.0,1.0,84,0.00,,,0.22,meteohub,2013-05-08 05:57:00,